»·PEaware :: SWA421 KELP-KPHX

SWA421 :: KELP-KPHX

FLIGHT INFORMATION

Flight Status: Arrived
Operator:
Southwest Airlines
More flights by this operator :: More flights under this callsign
Pilot: Anonymous 5456 (5456)
Aircraft: BOEING 737-800
(B738)
More flights by this aircraft type
Origin: KELP El Paso Intl
United States
Destination: KPHX Phoenix Sky Harbor Intl
United States
More flights between these airports :: More routes between these airports
Route: ATKNN5 ATKNN DRRVR PINNG1
File this flight plan on PilotEdge
Remarks:
Altitude:
(Current/Filed)
36,000ft
Speed:
(Current/Filed)
450kts
Departed: 17-Jul-17 10:58 AM
Arrived: 17-Jul-17 11:57 AM
Distance/Time
Traveled:
300nm/0:59
Distance/Time
To Go:
Arrived

Flight Plot

Page will automatically refresh every two minutes.

Flight plan parsing failed; only flown route is shown


Map Options




Map Legend


Flown Route
Filed Route
Departure Airport
Arrival Airport
Navaid (VOR, NDB)
Fix

Horizontal Profiles

Position Reports

Time Latitude Longitude Heading Altitude Ground
Speed
17-Jul-17 10:40 31.800410 -106.394597 161 3965ft 0kts
17-Jul-17 10:41 31.800410 -106.394597 161 3965ft 0kts
17-Jul-17 10:42 31.800410 -106.394597 161 3965ft 0kts
17-Jul-17 10:43 31.800410 -106.394597 161 3965ft 0kts
17-Jul-17 10:44 31.800410 -106.394597 161 3965ft 0kts
17-Jul-17 10:45 31.800410 -106.394597 161 3965ft 0kts
17-Jul-17 10:46 31.800410 -106.394597 161 3965ft 0kts
17-Jul-17 10:47 31.800410 -106.394597 161 3965ft 0kts
17-Jul-17 10:48 31.800410 -106.394597 161 3965ft 0kts
17-Jul-17 10:49 31.800410 -106.394597 161 3965ft 0kts
17-Jul-17 10:50 31.801137 -106.394998 114 3966ft 3kts
17-Jul-17 10:51 31.801149 -106.395412 89 3965ft 0kts
17-Jul-17 10:52 31.801156 -106.395699 153 3966ft 0kts
17-Jul-17 10:53 31.801122 -106.395679 154 3966ft 0kts
17-Jul-17 10:54 31.801398 -106.394356 79 3966ft 8kts
17-Jul-17 10:55 31.800253 -106.390826 134 3966ft 13kts
17-Jul-17 10:56 31.799915 -106.385899 90 3965ft 17kts
17-Jul-17 10:57 31.799925 -106.379807 90 3965ft 19kts
17-Jul-17 10:58 31.799631 -106.373072 92 3966ft 21kts
17-Jul-17 10:59 31.799271 -106.365819 92 3966ft 22kts
17-Jul-17 11:00 31.799575 -106.360466 10 3966ft 10kts
17-Jul-17 11:01 31.801223 -106.372312 270 3966ft 138kts
17-Jul-17 11:02 31.800385 -106.429942 241 5776ft 208kts
17-Jul-17 11:03 31.768112 -106.501109 269 7497ft 294kts
17-Jul-17 11:04 31.804071 -106.585803 290 10677ft 322kts
17-Jul-17 11:05 31.822427 -106.690133 279 13526ft 341kts
17-Jul-17 11:06 31.838874 -106.801246 279 16388ft 356kts
17-Jul-17 11:07 31.855701 -106.917053 279 19077ft 369kts
17-Jul-17 11:08 31.872965 -107.037020 280 21569ft 380kts
17-Jul-17 11:09 31.890712 -107.160997 280 23750ft 392kts
17-Jul-17 11:10 31.908814 -107.288660 280 25801ft 403kts
17-Jul-17 11:11 31.925432 -107.406715 280 27697ft 406kts
17-Jul-17 11:12 31.943491 -107.535926 281 29852ft 398kts
17-Jul-17 11:13 31.960572 -107.658887 280 31448ft 395kts
17-Jul-17 11:14 31.977757 -107.783555 281 32834ft 393kts
17-Jul-17 11:15 31.994960 -107.909346 281 34046ft 391kts
17-Jul-17 11:16 32.012080 -108.035483 281 35107ft 390kts
17-Jul-17 11:17 32.028895 -108.160355 281 36039ft 389kts
17-Jul-17 11:18 32.046018 -108.288280 281 36170ft 408kts
17-Jul-17 11:19 32.075935 -108.419309 298 36181ft 426kts
17-Jul-17 11:20 32.128232 -108.544302 298 36172ft 450kts
17-Jul-17 11:21 32.181846 -108.671783 298 36157ft 448kts
17-Jul-17 11:22 32.236120 -108.801690 293 36143ft 450kts
17-Jul-17 11:23 32.234571 -108.948266 260 36053ft 459kts
17-Jul-17 11:24 32.209252 -109.095099 259 36050ft 459kts
17-Jul-17 11:25 32.183677 -109.242277 260 36049ft 459kts
17-Jul-17 11:26 32.196981 -109.388873 285 36051ft 454kts
17-Jul-17 11:27 32.226734 -109.532848 286 36050ft 453kts
17-Jul-17 11:28 32.253432 -109.659832 285 36050ft 454kts
17-Jul-17 11:29 32.279856 -109.786001 285 36048ft 454kts
17-Jul-17 11:30 32.309970 -109.930581 285 36049ft 454kts
17-Jul-17 11:31 32.339847 -110.074920 285 36049ft 454kts
17-Jul-17 11:32 32.369641 -110.219737 285 36049ft 454kts
17-Jul-17 11:33 32.399221 -110.364415 285 36049ft 455kts
17-Jul-17 11:34 32.427187 -110.502129 285 34759ft 412kts
17-Jul-17 11:35 32.452690 -110.628136 285 32236ft 399kts
17-Jul-17 11:36 32.486769 -110.737736 303 30139ft 414kts
17-Jul-17 11:37 32.548646 -110.848109 302 27487ft 392kts
17-Jul-17 11:38 32.609790 -110.956576 304 25001ft 416kts
17-Jul-17 11:39 32.672549 -111.066426 305 22360ft 388kts
17-Jul-17 11:40 32.730270 -111.167840 304 19733ft 365kts
17-Jul-17 11:41 32.785802 -111.265671 303 17182ft 353kts
17-Jul-17 11:42 32.839250 -111.360292 303 14705ft 339kts
17-Jul-17 11:43 32.889850 -111.450259 302 12248ft 315kts
17-Jul-17 11:44 32.938856 -111.529786 308 10530ft 278kts
17-Jul-17 11:45 32.989175 -111.604800 307 11887ft 302kts
17-Jul-17 11:46 33.041054 -111.682606 306 12021ft 303kts
17-Jul-17 11:47 33.094016 -111.762156 307 11402ft 312kts
17-Jul-17 11:48 33.146031 -111.840578 308 10012ft 298kts
17-Jul-17 11:49 33.197401 -111.917924 309 9162ft 298kts
17-Jul-17 11:50 33.246100 -111.991247 309 7979ft 269kts
17-Jul-17 11:51 33.291193 -112.059174 309 6995ft 252kts
17-Jul-17 11:52 33.323244 -112.128768 295 7000ft 244kts
17-Jul-17 11:53 33.341041 -112.205092 271 7001ft 245kts
17-Jul-17 11:54 33.379991 -112.260575 353 5909ft 237kts
17-Jul-17 11:55 33.436565 -112.234292 49 4174ft 223kts
17-Jul-17 11:56 33.433741 -112.179039 113 3554ft 156kts
17-Jul-17 11:57 33.428929 -112.128056 89 2833ft 155kts
17-Jul-17 11:58 33.428866 -112.077361 88 2001ft 154kts
17-Jul-17 11:59 33.428845 -112.027360 89 1196ft 152kts
17-Jul-17 12:00 33.429857 -112.010020 68 1141ft 2kts
17-Jul-17 12:01 33.429941 -112.009598 84 1141ft 9kts
17-Jul-17 12:02 33.431637 -112.008789 27 1142ft 15kts
17-Jul-17 12:03 33.432146 -112.003382 91 1142ft 17kts
17-Jul-17 12:04 33.432448 -111.998147 16 1141ft 11kts
17-Jul-17 12:05 33.434038 -111.997360 83 1142ft 0kts
17-Jul-17 12:06 33.434038 -111.997360 83 1142ft 0kts

Navigation Log

Ident Type
Flight plan parsing failed, navigation log unavailable